createdAt,value
2018-11-25T00:00:23.694Z,88.60
2018-11-25T00:02:53.236Z,89.40
2018-11-25T00:05:22.430Z,88.60
2018-11-25T00:07:51.667Z,92.70
2018-11-25T00:10:20.920Z,94.80
2018-11-25T00:12:50.204Z,94.20
2018-11-25T00:15:19.658Z,93.80
2018-11-25T00:17:48.815Z,92.50
2018-11-25T00:20:18.424Z,93.20
2018-11-25T00:22:47.787Z,92.60
2018-11-25T00:25:18.145Z,90.40
2018-11-25T00:27:47.391Z,89.20
2018-11-25T00:30:16.838Z,86.90
2018-11-25T00:32:46.940Z,89.00
2018-11-25T00:35:16.826Z,89.50
2018-11-25T00:37:48.320Z,88.70
2018-11-25T00:40:16.126Z,89.00
2018-11-25T00:42:46.618Z,89.40
2018-11-25T00:45:19.009Z,90.10
2018-11-25T00:47:48.874Z,90.70
2018-11-25T00:50:18.082Z,91.20
2018-11-25T00:52:47.631Z,91.70
2018-11-25T00:55:17.695Z,92.20
2018-11-25T00:57:46.804Z,91.90
2018-11-25T01:00:16.987Z,90.90
2018-11-25T01:02:47.492Z,90.00
2018-11-25T01:05:16.650Z,90.20
2018-11-25T01:07:45.786Z,91.80
2018-11-25T01:10:15.895Z,91.70
2018-11-25T01:12:46.072Z,90.00
2018-11-25T01:15:17.183Z,91.20
2018-11-25T01:17:47.054Z,90.20
2018-11-25T01:20:18.516Z,91.50
2018-11-25T01:22:47.702Z,93.80
2018-11-25T01:25:17.353Z,93.40
2018-11-25T01:27:46.431Z,92.50
2018-11-25T01:30:17.635Z,91.40
2018-11-25T01:32:46.820Z,90.10
2018-11-25T01:35:16.552Z,91.10
2018-11-25T01:37:45.685Z,91.10
2018-11-25T01:40:16.947Z,89.10
2018-11-25T01:45:15.857Z,89.60
2018-11-25T01:47:45.176Z,89.00
2018-11-25T01:50:17.191Z,88.40
2018-11-25T01:52:46.929Z,92.10
2018-11-25T01:55:17.251Z,95.40
2018-11-25T01:57:46.318Z,96.80
2018-11-25T02:00:18.197Z,94.90
2018-11-25T02:02:47.411Z,94.70
2018-11-25T02:05:16.649Z,95.40
2018-11-25T02:07:45.754Z,92.90
2018-11-25T02:10:18.154Z,93.10
2018-11-25T02:12:47.383Z,92.90
2018-11-25T02:15:17.359Z,92.40
2018-11-25T02:17:46.551Z,93.20
2018-11-25T02:20:18.597Z,92.40
2018-11-25T02:22:47.770Z,90.60
2018-11-25T02:25:16.980Z,90.60
2018-11-25T02:27:46.081Z,90.30
2018-11-25T02:30:16.419Z,89.80
2018-11-25T02:32:46.071Z,92.00
2018-11-25T02:35:16.023Z,92.80
2018-11-25T02:37:46.132Z,92.00
2018-11-25T02:40:16.946Z,91.20
2018-11-25T02:42:46.270Z,90.00
2018-11-25T02:45:19.555Z,90.30
2018-11-25T02:47:48.656Z,89.50
2018-11-25T02:50:24.668Z,89.90
2018-11-25T02:52:54.810Z,91.60
2018-11-25T02:55:25.590Z,94.40
2018-11-25T02:57:54.685Z,96.50
2018-11-25T03:00:23.965Z,97.80
2018-11-25T03:02:53.290Z,97.90
2018-11-25T03:05:22.461Z,97.60
2018-11-25T03:07:51.597Z,98.10
2018-11-25T03:10:20.703Z,99.90
2018-11-25T03:12:49.760Z,99.90
2018-11-25T03:15:19.116Z,98.90
2018-11-25T03:17:48.948Z,99.10
2018-11-25T03:20:18.504Z,98.80
2018-11-25T03:22:47.787Z,98.60
2018-11-25T03:25:21.363Z,97.40
2018-11-25T03:27:50.525Z,95.30
2018-11-25T03:30:20.591Z,95.00
2018-11-25T03:32:50.958Z,93.40
2018-11-25T03:35:20.219Z,93.70
2018-11-25T03:37:49.524Z,93.90
2018-11-25T03:40:19.543Z,94.10
2018-11-25T03:42:48.650Z,95.50
2018-11-25T03:45:19.212Z,94.60
2018-11-25T03:47:48.554Z,94.40
2018-11-25T03:50:17.923Z,97.30
2018-11-25T03:52:47.070Z,99.90
2018-11-25T03:55:16.999Z,99.90
2018-11-25T03:57:47.047Z,99.90
2018-11-25T04:00:23.814Z,99.90
2018-11-25T04:02:53.889Z,99.90
2018-11-25T04:05:23.036Z,99.90
2018-11-25T04:07:52.192Z,99.90
2018-11-25T04:10:21.406Z,99.90
2018-11-25T04:12:50.662Z,99.50
2018-11-25T04:15:20.171Z,98.70
2018-11-25T04:17:49.349Z,99.30
2018-11-25T04:20:19.573Z,98.80
2018-11-25T04:22:49.221Z,98.60
2018-11-25T04:25:18.466Z,98.30
2018-11-25T04:27:47.532Z,97.50
2018-11-25T04:30:17.814Z,93.50
2018-11-25T04:32:48.785Z,90.00
2018-11-25T04:35:17.943Z,92.10
2018-11-25T04:37:47.087Z,90.50
2018-11-25T04:40:18.230Z,91.00
2018-11-25T04:42:47.315Z,91.80
2018-11-25T04:45:17.699Z,92.80
2018-11-25T04:47:47.458Z,96.80
2018-11-25T04:50:18.214Z,94.90
2018-11-25T04:52:47.527Z,94.20
2018-11-25T04:55:16.747Z,99.00
2018-11-25T04:57:47.628Z,99.90
2018-11-25T05:00:16.937Z,99.90
2018-11-25T05:02:46.009Z,99.90
2018-11-25T05:05:16.843Z,95.30
2018-11-25T05:07:46.197Z,92.10
2018-11-25T05:10:17.301Z,92.70
2018-11-25T05:12:46.524Z,94.00
2018-11-25T05:15:17.736Z,95.70
2018-11-25T05:17:46.959Z,98.50
2018-11-25T05:20:16.720Z,99.90
2018-11-25T05:22:45.831Z,99.90
2018-11-25T05:25:16.840Z,99.90
2018-11-25T05:27:46.075Z,99.90
2018-11-25T05:30:17.333Z,99.90
2018-11-25T05:32:46.417Z,95.30
2018-11-25T05:35:23.119Z,92.30
2018-11-25T05:37:52.334Z,91.50
2018-11-25T05:40:23.182Z,91.10
2018-11-25T05:42:52.449Z,96.40
2018-11-25T05:45:21.652Z,98.50
2018-11-25T05:47:50.754Z,97.20
2018-11-25T05:50:20.081Z,97.00
2018-11-25T05:52:49.266Z,96.70
2018-11-25T05:55:18.333Z,99.90
2018-11-25T05:57:47.448Z,99.90
2018-11-25T06:00:24.914Z,99.90
2018-11-25T06:02:54.031Z,99.90
2018-11-25T06:05:23.553Z,99.90
2018-11-25T06:07:53.346Z,99.90
2018-11-25T06:10:22.422Z,99.70
2018-11-25T06:12:51.569Z,98.60
2018-11-25T06:15:20.902Z,97.20
2018-11-25T06:17:49.995Z,91.90
2018-11-25T06:20:19.230Z,86.50
2018-11-25T06:22:49.090Z,87.80
2018-11-25T06:25:19.552Z,90.50
2018-11-25T06:27:48.822Z,91.30
2018-11-25T06:30:19.686Z,90.90
2018-11-25T06:32:49.135Z,91.10
2018-11-25T06:35:19.454Z,90.80
2018-11-25T06:37:48.602Z,90.20
2018-11-25T06:40:18.765Z,92.00
2018-11-25T06:42:48.158Z,91.80
2018-11-25T06:45:18.661Z,92.20
2018-11-25T06:47:47.767Z,99.60
2018-11-25T06:50:17.214Z,98.60
2018-11-25T06:52:47.298Z,94.90
2018-11-25T06:55:16.407Z,92.10
2018-11-25T06:57:45.674Z,92.00
2018-11-25T07:00:16.083Z,92.90
2018-11-25T07:02:45.368Z,92.70
2018-11-25T07:05:14.833Z,91.50
2018-11-25T07:07:44.587Z,91.30
2018-11-25T07:10:17.595Z,92.80
2018-11-25T07:12:48.517Z,93.30
2018-11-25T07:15:19.718Z,94.80
2018-11-25T07:17:48.818Z,95.30
2018-11-25T07:20:20.135Z,94.20
2018-11-25T07:22:49.006Z,95.90
2018-11-25T07:25:19.023Z,93.50
2018-11-25T07:27:47.940Z,93.70
2018-11-25T07:30:19.700Z,98.60
2018-11-25T07:32:48.588Z,98.80
2018-11-25T07:35:17.591Z,95.30
2018-11-25T07:37:46.506Z,91.50
2018-11-25T07:40:17.297Z,92.90
2018-11-25T07:42:46.155Z,92.60
2018-11-25T07:45:16.025Z,93.50
2018-11-25T07:47:44.893Z,93.80
2018-11-25T07:50:13.875Z,95.00
2018-11-25T07:52:43.736Z,97.30
2018-11-25T07:57:42.739Z,99.90
2018-11-25T08:00:19.290Z,99.90
2018-11-25T08:02:48.116Z,99.90
2018-11-25T08:05:22.337Z,95.90
2018-11-25T08:07:51.223Z,88.20
2018-11-25T08:10:20.041Z,85.20
2018-11-25T08:12:48.960Z,85.80
2018-11-25T08:15:18.826Z,86.50
2018-11-25T08:17:47.686Z,88.60
2018-11-25T08:20:17.403Z,89.70
2018-11-25T08:22:46.223Z,91.00
2018-11-25T08:25:16.107Z,93.30
2018-11-25T08:27:44.977Z,97.10
2018-11-25T08:30:16.960Z,98.40
2018-11-25T08:32:45.821Z,96.60
2018-11-25T08:35:15.245Z,92.50
2018-11-25T08:40:14.384Z,90.70
2018-11-25T08:42:43.205Z,80.70
2018-11-25T08:45:12.970Z,76.20
2018-11-25T08:47:41.818Z,75.80
2018-11-25T08:50:12.574Z,74.80
2018-11-25T08:52:41.835Z,75.00
2018-11-25T08:55:14.597Z,74.40
2018-11-25T08:57:43.486Z,66.90
2018-11-25T09:00:15.598Z,66.10
2018-11-25T09:05:13.932Z,64.20
2018-11-25T09:07:42.908Z,63.10
2018-11-25T09:10:13.541Z,61.90
2018-11-25T09:12:42.857Z,59.90
2018-11-25T09:15:13.169Z,59.90
2018-11-25T09:17:42.175Z,59.10
2018-11-25T09:20:12.579Z,60.00
2018-11-25T09:22:41.593Z,62.30
2018-11-25T09:25:11.981Z,64.00
2018-11-25T09:27:40.884Z,64.10
2018-11-25T09:30:13.294Z,62.20
2018-11-25T09:32:42.156Z,61.20
2018-11-25T09:37:39.525Z,58.60
2018-11-25T09:40:12.404Z,56.40
2018-11-25T09:42:41.243Z,57.40
2018-11-25T09:45:12.297Z,57.00
2018-11-25T09:47:41.989Z,55.40
2018-11-25T09:50:12.045Z,57.00
2018-11-25T09:52:40.899Z,56.70
2018-11-25T09:55:11.049Z,55.70
2018-11-25T09:57:40.438Z,54.60
2018-11-25T10:00:15.198Z,55.20
2018-11-25T10:02:44.057Z,54.80
2018-11-25T10:05:12.905Z,51.80
2018-11-25T10:07:42.438Z,52.90
2018-11-25T10:10:15.153Z,54.10
2018-11-25T10:12:44.032Z,54.10
2018-11-25T10:15:13.961Z,55.40
2018-11-25T10:17:42.803Z,55.30
2018-11-25T10:20:14.896Z,54.30
2018-11-25T10:22:44.654Z,53.80
2018-11-25T10:25:14.478Z,52.80
2018-11-25T10:27:43.340Z,53.50
2018-11-25T10:30:14.384Z,52.20
2018-11-25T10:32:43.591Z,51.10
2018-11-25T10:35:12.566Z,49.70
2018-11-25T10:37:41.389Z,47.30
2018-11-25T10:40:13.276Z,46.50
2018-11-25T10:42:42.115Z,47.10
2018-11-25T10:45:14.942Z,48.10
2018-11-25T10:47:43.768Z,49.60
2018-11-25T10:50:13.708Z,52.50
2018-11-25T10:52:42.582Z,51.60
2018-11-25T10:55:14.188Z,50.90
2018-11-25T10:57:44.006Z,49.30
2018-11-25T11:00:22.337Z,50.00
2018-11-25T11:02:56.589Z,49.60
2018-11-25T11:06:29.546Z,50.60
2018-11-25T11:08:58.385Z,50.70
2018-11-25T11:11:27.229Z,49.80
2018-11-25T11:13:56.052Z,49.70
2018-11-25T11:16:24.935Z,49.30
2018-11-25T11:18:53.761Z,47.10
2018-11-25T11:23:57.941Z,47.60
2018-11-25T11:26:27.026Z,47.40
2018-11-25T11:28:55.837Z,48.10
2018-11-25T11:31:24.705Z,48.30
2018-11-25T11:33:53.501Z,48.90
2018-11-25T11:36:22.340Z,51.10
2018-11-25T11:38:51.180Z,50.30
2018-11-25T11:41:20.098Z,51.10
2018-11-25T11:43:48.934Z,48.80
2018-11-25T11:46:17.775Z,47.70
2018-11-25T11:48:46.592Z,47.70
2018-11-25T11:51:15.432Z,47.90
2018-11-25T11:53:44.281Z,48.40
2018-11-25T11:56:13.141Z,50.80
2018-11-25T11:58:41.981Z,49.70
2018-11-25T12:01:10.904Z,48.70
2018-11-25T12:03:39.753Z,48.10
2018-11-25T12:06:08.590Z,47.50
2018-11-25T12:08:37.435Z,47.50
2018-11-25T12:11:06.725Z,49.20
2018-11-25T12:13:35.575Z,50.90
2018-11-25T12:16:05.113Z,52.60
2018-11-25T12:18:34.005Z,52.30
2018-11-25T12:21:02.889Z,53.70
2018-11-25T12:23:31.769Z,53.10
2018-11-25T12:26:00.641Z,53.30
2018-11-25T12:28:29.445Z,52.60
2018-11-25T12:30:58.261Z,52.50
2018-11-25T12:33:27.081Z,53.40
2018-11-25T12:35:55.936Z,53.30
2018-11-25T12:38:24.752Z,51.40
2018-11-25T12:40:53.605Z,49.30
2018-11-25T12:43:22.400Z,48.80
2018-11-25T12:45:51.219Z,48.90
2018-11-25T12:48:20.082Z,47.50
2018-11-25T14:02:08.128Z,66.60
2018-11-25T14:04:36.977Z,68.70
2018-11-25T14:07:06.277Z,67.80
2018-11-25T14:09:35.077Z,67.10
2018-11-25T14:12:04.069Z,68.20
2018-11-25T14:14:32.881Z,69.40
2018-11-25T14:17:01.734Z,70.40
2018-11-25T14:19:30.536Z,70.30
2018-11-25T14:21:59.369Z,69.10
2018-11-25T14:24:28.213Z,70.40
2018-11-25T14:26:59.661Z,70.70
2018-11-25T14:29:28.905Z,71.40
2018-11-25T14:31:57.753Z,72.30
2018-11-25T14:34:26.577Z,72.10
2018-11-25T14:36:55.405Z,72.00
2018-11-25T14:39:24.257Z,73.50
2018-11-25T14:41:53.690Z,74.30
2018-11-25T14:44:22.545Z,76.70
2018-11-25T14:46:51.436Z,77.90
2018-11-25T14:49:20.278Z,79.10
2018-11-25T14:51:49.200Z,79.50
2018-11-25T14:54:18.096Z,80.40
2018-11-25T14:56:46.935Z,79.50
2018-11-25T14:59:15.813Z,79.80
2018-11-25T15:01:44.693Z,80.50
2018-11-25T15:04:13.529Z,80.20
2018-11-25T15:06:42.384Z,80.70
2018-11-25T15:09:11.534Z,80.10
2018-11-25T15:11:40.348Z,79.70
2018-11-25T15:14:09.549Z,79.50
2018-11-25T15:16:38.926Z,78.90
2018-11-25T15:19:08.058Z,78.70
2018-11-25T15:21:37.175Z,77.80
2018-11-25T15:24:06.759Z,77.10
2018-11-25T15:26:35.946Z,76.50
2018-11-25T15:29:05.366Z,76.30
2018-11-25T15:31:34.629Z,75.20
2018-11-25T15:34:03.859Z,74.40
2018-11-25T15:36:33.020Z,74.20
2018-11-25T15:39:02.847Z,73.60
2018-11-25T15:41:32.268Z,73.30
2018-11-25T15:44:01.354Z,72.80
2018-11-25T15:46:30.511Z,72.40
2018-11-25T15:48:59.714Z,72.30
2018-11-25T15:51:28.999Z,72.00
2018-11-25T15:53:58.155Z,71.70
2018-11-25T15:56:27.950Z,71.20
2018-11-25T15:58:57.323Z,71.30
2018-11-25T16:01:27.792Z,70.80
2018-11-25T16:03:56.968Z,70.70
2018-11-25T16:06:28.611Z,70.00
2018-11-25T16:08:58.548Z,70.10
2018-11-25T16:11:27.845Z,70.00
2018-11-25T16:13:57.085Z,70.10
2018-11-25T16:16:26.189Z,70.80
2018-11-25T16:18:56.460Z,71.40
2018-11-25T16:21:26.306Z,72.40
2018-11-25T16:23:56.349Z,74.10
2018-11-25T16:26:32.027Z,73.40
2018-11-25T16:29:10.588Z,74.20
2018-11-25T16:31:40.280Z,74.50
2018-11-25T16:34:09.408Z,74.30
2018-11-25T16:36:38.610Z,74.00
2018-11-25T16:39:09.657Z,73.60
2018-11-25T16:41:39.003Z,73.80
2018-11-25T16:44:08.823Z,73.50
2018-11-25T16:46:38.007Z,73.60
2018-11-25T16:49:07.222Z,73.40
2018-11-25T16:51:36.518Z,73.30
2018-11-25T16:54:05.864Z,73.80
2018-11-25T16:56:35.046Z,73.80
2018-11-25T16:59:04.344Z,74.60
2018-11-25T17:01:34.072Z,73.70
2018-11-25T17:04:03.198Z,74.00
2018-11-25T17:06:33.362Z,74.10
2018-11-25T17:09:03.339Z,75.00
2018-11-25T17:11:32.575Z,76.30
2018-11-25T17:14:01.845Z,77.20
2018-11-25T17:16:31.705Z,77.80
2018-11-25T17:19:01.452Z,78.30
2018-11-25T17:21:30.567Z,78.70
2018-11-25T17:23:59.713Z,78.80
2018-11-25T17:26:28.894Z,78.50
2018-11-25T17:28:58.034Z,78.40
2018-11-25T17:31:28.079Z,78.00
2018-11-25T17:33:57.253Z,77.50
2018-11-25T17:36:26.438Z,77.50
2018-11-25T17:38:55.736Z,78.00
2018-11-25T17:41:26.111Z,78.60
2018-11-25T17:43:55.269Z,78.30
2018-11-25T17:46:25.168Z,78.00
2018-11-25T17:48:55.349Z,78.30
2018-11-25T17:51:25.348Z,78.40
2018-11-25T17:53:54.735Z,78.30
2018-11-25T17:56:26.857Z,78.10
2018-11-25T17:58:56.158Z,78.30
2018-11-25T18:01:26.931Z,77.80
2018-11-25T18:03:56.089Z,79.20
2018-11-25T18:06:25.373Z,78.90
2018-11-25T18:08:54.550Z,79.00
2018-11-25T18:11:23.825Z,79.40
2018-11-25T18:13:53.005Z,79.00
2018-11-25T18:16:22.658Z,79.70
2018-11-25T18:18:57.163Z,80.60
2018-11-25T18:21:27.289Z,80.10
2018-11-25T18:23:56.431Z,80.10
2018-11-25T18:26:26.186Z,79.70
2018-11-25T18:28:56.197Z,79.60
2018-11-25T18:31:25.316Z,79.00
2018-11-25T18:33:54.508Z,78.80
2018-11-25T18:36:24.066Z,78.30
2018-11-25T18:38:53.215Z,78.90
2018-11-25T18:41:22.873Z,80.00
2018-11-25T18:43:52.030Z,80.10
2018-11-25T18:46:21.532Z,80.80
2018-11-25T18:48:51.915Z,81.90
2018-11-25T18:51:21.017Z,81.30
2018-11-25T18:53:50.177Z,80.70
2018-11-25T18:56:20.236Z,80.60
2018-11-25T18:58:49.415Z,80.30
2018-11-25T19:01:22.829Z,80.60
2018-11-25T19:03:51.923Z,80.70
2018-11-25T19:06:21.691Z,80.90
2018-11-25T19:08:50.874Z,80.00
2018-11-25T19:11:20.602Z,80.20
2018-11-25T19:13:49.814Z,81.00
2018-11-25T19:16:19.172Z,81.00
2018-11-25T19:18:49.054Z,81.60
2018-11-25T19:21:18.243Z,81.70
2018-11-25T19:23:47.538Z,81.60
2018-11-25T19:26:16.629Z,81.60
2018-11-25T19:28:46.459Z,81.50
2018-11-25T19:31:15.637Z,82.50
2018-11-25T19:33:45.968Z,82.40
2018-11-25T19:36:15.132Z,82.40
2018-11-25T19:38:44.272Z,82.20
2018-11-25T19:41:13.395Z,82.50
2018-11-25T19:43:42.476Z,82.50
2018-11-25T19:46:12.032Z,82.70
2018-11-25T19:48:42.454Z,82.50
2018-11-25T19:51:17.399Z,82.20
2018-11-25T19:53:41.321Z,82.40
2018-11-25T19:56:10.428Z,82.00
2018-11-25T19:58:39.595Z,81.70
2018-11-25T20:01:08.831Z,81.30
2018-11-25T20:03:39.231Z,80.80
2018-11-25T20:06:09.106Z,80.40
2018-11-25T20:08:38.302Z,80.70
2018-11-25T20:11:07.587Z,79.20
2018-11-25T20:13:36.713Z,78.80
2018-11-25T20:16:11.150Z,78.90
2018-11-25T20:18:40.273Z,78.90
2018-11-25T20:21:14.528Z,78.20
2018-11-25T20:23:43.630Z,78.30
2018-11-25T20:26:12.766Z,78.40
2018-11-25T20:28:41.981Z,78.20
2018-11-25T20:31:12.335Z,78.10
2018-11-25T20:33:52.374Z,77.90
2018-11-25T20:36:20.711Z,77.40
2018-11-25T20:38:55.225Z,77.40
2018-11-25T20:41:25.667Z,76.80
2018-11-25T20:43:54.810Z,77.40
2018-11-25T20:46:30.016Z,78.00
2018-11-25T20:48:59.914Z,78.10
2018-11-25T20:52:33.919Z,77.80
2018-11-25T20:55:04.079Z,77.00
2018-11-25T20:57:33.260Z,76.70
2018-11-25T21:00:02.534Z,77.10
2018-11-25T21:02:32.433Z,77.20
2018-11-25T21:05:01.663Z,77.50
2018-11-25T21:07:30.801Z,77.50
2018-11-25T21:10:00.031Z,77.10
2018-11-25T21:12:29.923Z,77.50
2018-11-25T21:14:59.139Z,78.30
2018-11-25T21:17:29.087Z,79.20
2018-11-25T21:19:58.272Z,79.60
2018-11-25T21:22:27.538Z,79.60
2018-11-25T21:24:56.884Z,80.40
2018-11-25T21:27:26.585Z,79.30
2018-11-25T21:29:56.830Z,79.80
2018-11-25T21:32:25.902Z,80.00
2018-11-25T21:34:55.026Z,80.80
2018-11-25T21:37:24.162Z,81.40
2018-11-25T21:39:53.553Z,82.20
2018-11-25T21:42:23.691Z,83.00
2018-11-25T21:44:52.902Z,83.30
2018-11-25T21:47:22.743Z,83.90
2018-11-25T21:49:52.792Z,84.50
2018-11-25T21:52:22.673Z,84.00
2018-11-25T21:54:51.910Z,84.60
2018-11-25T21:57:21.020Z,84.80
2018-11-25T21:59:51.258Z,84.50
2018-11-25T22:02:21.652Z,84.40
2018-11-25T22:04:50.393Z,84.80
2018-11-25T22:07:19.671Z,84.60
2018-11-25T22:09:49.425Z,84.40
2018-11-25T22:12:18.498Z,84.30
2018-11-25T22:14:47.624Z,84.60
2018-11-25T22:17:17.338Z,84.20
2018-11-25T22:19:46.545Z,84.00
2018-11-25T22:22:16.550Z,83.40
2018-11-25T22:24:46.150Z,83.90
2018-11-25T22:27:15.300Z,84.50
2018-11-25T22:29:44.948Z,83.90
2018-11-25T22:32:14.142Z,83.40
2018-11-25T22:34:43.241Z,83.60
2018-11-25T22:37:12.554Z,83.40
2018-11-25T22:39:42.554Z,83.70
2018-11-25T22:42:11.651Z,83.60
2018-11-25T22:44:41.109Z,83.00
2018-11-25T22:47:11.735Z,82.30
2018-11-25T22:49:40.911Z,82.80
2018-11-25T22:52:09.997Z,82.60
2018-11-25T22:54:39.718Z,82.10
2018-11-25T22:57:08.889Z,83.90
2018-11-25T22:59:38.034Z,83.70
2018-11-25T23:02:07.934Z,83.90
2018-11-25T23:04:48.077Z,83.30
2018-11-25T23:07:17.235Z,83.10
2018-11-25T23:09:46.386Z,82.60
2018-11-25T23:12:16.094Z,83.00
2018-11-25T23:14:45.218Z,83.00
2018-11-25T23:17:14.331Z,82.20
2018-11-25T23:19:43.438Z,81.80
2018-11-25T23:22:13.201Z,82.70
2018-11-25T23:24:42.871Z,82.80
2018-11-25T23:27:12.009Z,82.90
2018-11-25T23:29:41.682Z,82.80
2018-11-25T23:32:11.476Z,83.50
2018-11-25T23:34:41.443Z,83.90
2018-11-25T23:37:10.678Z,84.40
2018-11-25T23:39:39.889Z,83.60
2018-11-25T23:42:09.066Z,83.50
2018-11-25T23:44:38.160Z,83.40
2018-11-25T23:47:07.480Z,83.90
2018-11-25T23:49:36.593Z,84.20
2018-11-25T23:52:05.812Z,84.30
2018-11-25T23:54:35.047Z,85.20
2018-11-25T23:57:04.327Z,86.40
2018-11-25T23:59:33.542Z,86.20
